createdAt,value
2019-05-02T00:02:32.677Z,7.17
2019-05-02T00:07:36.034Z,6.93
2019-05-02T00:12:40.026Z,7.23
2019-05-02T00:17:43.662Z,8.63
2019-05-02T00:22:47.994Z,6.97
2019-05-02T00:27:52.218Z,8.10
2019-05-02T00:32:58.191Z,7.23
2019-05-02T00:38:02.503Z,6.80
2019-05-02T00:43:05.796Z,6.37
2019-05-02T00:48:10.872Z,7.03
2019-05-02T00:53:14.290Z,6.60
2019-05-02T00:58:17.616Z,6.23
2019-05-02T01:03:22.168Z,7.20
2019-05-02T01:08:25.450Z,6.50
2019-05-02T01:13:28.885Z,5.97
2019-05-02T01:18:32.386Z,6.50
2019-05-02T01:23:35.736Z,6.97
2019-05-02T01:28:54.393Z,5.03
2019-05-02T01:34:05.701Z,6.58
2019-05-02T01:39:10.693Z,5.67
2019-05-02T01:44:14.114Z,6.50
2019-05-02T01:49:21.885Z,5.53
2019-05-02T01:54:22.777Z,6.87
2019-05-02T01:59:29.025Z,6.83
2019-05-02T02:04:31.441Z,5.63
2019-05-02T02:09:38.825Z,8.13
2019-05-02T02:14:39.978Z,7.47
2019-05-02T02:19:45.023Z,6.03
2019-05-02T02:24:50.009Z,6.30
2019-05-02T02:29:53.391Z,4.47
2019-05-02T02:34:56.781Z,5.00
2019-05-02T02:40:00.143Z,5.03
2019-05-02T02:45:18.916Z,5.62
2019-05-02T02:50:18.414Z,5.33
2019-05-02T02:55:24.589Z,5.30
2019-05-02T03:00:27.940Z,5.50
2019-05-02T03:05:31.552Z,5.80
2019-05-02T03:10:39.927Z,5.40
2019-05-02T03:15:41.700Z,5.03
2019-05-02T03:20:45.218Z,5.50
2019-05-02T03:25:51.160Z,4.50
2019-05-02T03:30:54.049Z,5.23
2019-05-02T03:35:57.545Z,5.67
2019-05-02T03:41:01.016Z,5.27
2019-05-02T03:46:04.421Z,5.60
2019-05-02T03:51:19.677Z,5.87
2019-05-02T03:56:14.195Z,6.50
2019-05-02T04:01:17.818Z,5.47
2019-05-02T04:06:23.604Z,6.17
2019-05-02T04:11:32.839Z,5.67
2019-05-02T04:16:31.738Z,6.73
2019-05-02T04:21:35.579Z,5.47
2019-05-02T04:26:52.585Z,5.37
2019-05-02T04:31:44.712Z,7.20
2019-05-02T04:36:59.962Z,6.33
2019-05-02T04:41:53.215Z,6.63
2019-05-02T04:47:02.772Z,6.53
2019-05-02T04:52:06.986Z,6.13
2019-05-02T04:57:08.460Z,7.30
2019-05-02T05:02:11.857Z,6.03
2019-05-02T05:07:17.632Z,5.57
2019-05-02T05:12:20.481Z,6.40
2019-05-02T05:17:25.070Z,6.73
2019-05-02T05:22:29.050Z,7.47
2019-05-02T05:27:32.430Z,6.37
2019-05-02T05:32:37.566Z,5.87
2019-05-02T05:37:43.308Z,7.27
2019-05-02T05:42:48.135Z,8.00
2019-05-02T05:47:57.519Z,7.13
2019-05-02T05:52:59.353Z,6.30
2019-05-02T05:58:12.346Z,8.53
2019-05-02T06:03:13.893Z,8.65
2019-05-02T06:08:13.860Z,8.83
2019-05-02T06:13:17.350Z,8.63
2019-05-02T06:18:20.725Z,7.33
2019-05-02T06:23:25.151Z,8.20
2019-05-02T06:28:28.573Z,8.07
2019-05-02T06:33:32.424Z,9.27
2019-05-02T06:38:35.910Z,9.13
2019-05-02T06:43:41.126Z,10.87
2019-05-02T06:48:48.252Z,8.73
2019-05-02T06:53:50.809Z,9.83
2019-05-02T06:58:54.330Z,10.77
2019-05-02T07:03:57.700Z,9.93
2019-05-02T07:09:01.197Z,9.57
2019-05-02T07:14:13.116Z,8.83
2019-05-02T07:19:29.367Z,9.33
2019-05-02T07:24:33.017Z,11.33
2019-05-02T07:29:36.389Z,10.70
2019-05-02T07:34:44.295Z,9.13
2019-05-02T07:39:44.798Z,9.67
2019-05-02T07:44:48.148Z,9.40
2019-05-02T07:49:51.513Z,10.33
2019-05-02T07:54:56.148Z,11.38
2019-05-02T08:00:00.911Z,10.10
2019-05-02T08:05:08.726Z,10.43
2019-05-02T08:10:11.115Z,11.53
2019-05-02T08:15:15.253Z,10.83
2019-05-02T08:20:19.555Z,10.40
2019-05-02T08:25:24.025Z,12.07
2019-05-02T08:30:29.109Z,10.90
2019-05-02T08:35:32.444Z,8.90
2019-05-02T08:40:35.853Z,10.63
2019-05-02T08:45:39.614Z,9.90
2019-05-02T08:50:43.084Z,8.97
2019-05-02T08:55:46.752Z,8.67
2019-05-02T09:00:50.187Z,6.17
2019-05-02T09:06:05.211Z,5.90
2019-05-02T09:10:59.434Z,5.63
2019-05-02T09:16:05.819Z,4.47
2019-05-02T09:21:07.911Z,3.92
2019-05-02T09:26:11.911Z,3.93
2019-05-02T09:31:15.710Z,4.03
2019-05-02T09:36:19.102Z,4.07
2019-05-02T09:41:26.806Z,2.67
2019-05-02T09:46:27.797Z,4.30
2019-05-02T09:51:32.431Z,4.03
2019-05-02T09:56:36.111Z,3.20
2019-05-02T10:01:42.100Z,4.07
2019-05-02T10:06:45.657Z,3.50
2019-05-02T10:11:49.087Z,4.03
2019-05-02T10:16:53.122Z,3.83
2019-05-02T10:21:56.736Z,3.13
2019-05-02T10:27:04.191Z,5.03
2019-05-02T10:32:07.649Z,3.47
2019-05-02T10:37:12.338Z,3.23
2019-05-02T10:42:15.793Z,4.10
2019-05-02T10:47:19.243Z,4.07
2019-05-02T10:52:29.795Z,3.80
2019-05-02T10:57:28.173Z,3.40
2019-05-02T11:02:52.497Z,3.70
2019-05-02T11:08:04.672Z,3.30
2019-05-02T11:13:17.040Z,4.20
2019-05-02T11:18:24.290Z,3.80
2019-05-02T11:23:28.225Z,3.30
2019-05-02T11:28:32.396Z,3.53
2019-05-02T11:33:35.878Z,3.47
2019-05-02T11:38:47.232Z,3.73
2019-05-02T11:43:44.971Z,2.70
2019-05-02T11:48:56.241Z,3.73
2019-05-02T11:53:53.469Z,3.57
2019-05-02T11:58:56.922Z,4.73
2019-05-02T12:04:00.338Z,3.57
2019-05-02T12:09:05.799Z,4.40
2019-05-02T12:14:09.349Z,3.70
2019-05-02T12:19:14.930Z,4.37
2019-05-02T12:24:17.806Z,4.07
2019-05-02T12:29:21.827Z,3.60
2019-05-02T12:34:25.274Z,4.37
2019-05-02T12:39:28.618Z,3.40
2019-05-02T12:44:32.002Z,3.53
2019-05-02T12:49:35.474Z,4.53
2019-05-02T12:54:38.936Z,5.17
2019-05-02T12:59:42.322Z,4.93
2019-05-02T13:04:45.675Z,4.17
2019-05-02T13:09:49.135Z,3.40
2019-05-02T13:14:53.007Z,4.00
2019-05-02T13:20:00.836Z,3.93
2019-05-02T13:25:03.221Z,4.00
2019-05-02T13:30:09.452Z,4.93
2019-05-02T13:35:17.383Z,4.13
2019-05-02T13:40:28.083Z,4.50
2019-05-02T13:45:33.155Z,5.03
2019-05-02T13:50:36.582Z,4.70
2019-05-02T13:55:57.854Z,4.13
2019-05-02T14:01:03.425Z,4.50
2019-05-02T14:06:07.134Z,4.60
2019-05-02T14:11:28.555Z,4.67
2019-05-02T14:16:32.158Z,5.27
2019-05-02T14:21:35.656Z,6.03
2019-05-02T14:26:39.144Z,5.90
2019-05-02T14:31:42.556Z,7.17
2019-05-02T14:36:46.030Z,7.07
2019-05-02T14:41:49.392Z,6.40
2019-05-02T14:46:53.016Z,6.37
2019-05-02T14:51:57.140Z,5.53
2019-05-02T14:57:04.125Z,6.73
2019-05-02T15:02:09.191Z,6.90
2019-05-02T15:07:13.125Z,6.10
2019-05-02T15:12:19.054Z,7.23
2019-05-02T15:17:22.726Z,5.63
2019-05-02T15:22:27.498Z,6.30
2019-05-02T15:27:40.113Z,6.40
2019-05-02T15:32:46.997Z,7.00
2019-05-02T15:37:51.783Z,5.40
2019-05-02T15:42:56.845Z,5.57
2019-05-02T15:48:02.532Z,7.37
2019-05-02T15:53:12.442Z,5.60
2019-05-02T15:58:17.056Z,5.30
2019-05-02T16:03:23.108Z,5.03
2019-05-02T16:08:28.151Z,4.83
2019-05-02T16:13:31.843Z,5.47
2019-05-02T16:18:36.006Z,5.70
2019-05-02T16:23:42.457Z,5.13
2019-05-02T16:28:45.865Z,5.20
2019-05-02T16:33:49.729Z,4.57
2019-05-02T16:38:53.248Z,5.13
2019-05-02T16:43:56.859Z,5.53
2019-05-02T16:49:00.447Z,5.60
2019-05-02T16:54:05.142Z,5.07
2019-05-02T16:59:08.716Z,5.30
2019-05-02T17:04:12.930Z,4.90
2019-05-02T17:09:38.677Z,5.03
2019-05-02T17:14:43.558Z,4.93
2019-05-02T17:19:45.546Z,5.37
2019-05-02T17:24:48.979Z,5.73
2019-05-02T17:29:59.171Z,5.33
2019-05-02T17:35:02.614Z,5.77
2019-05-02T17:40:07.791Z,5.73
2019-05-02T17:45:12.413Z,6.33
2019-05-02T17:50:26.992Z,6.80
2019-05-02T17:55:32.848Z,6.57
2019-05-02T18:00:37.309Z,6.40
2019-05-02T18:05:41.862Z,5.83
2019-05-02T18:10:45.338Z,6.87
2019-05-02T18:15:48.689Z,6.37
2019-05-02T18:20:52.857Z,6.70
2019-05-02T18:25:57.513Z,6.37
2019-05-02T18:31:04.678Z,6.30
2019-05-02T18:36:06.654Z,5.67
2019-05-02T18:41:11.888Z,7.03
2019-05-02T18:46:15.202Z,6.50
2019-05-02T18:51:19.547Z,5.33
2019-05-02T18:56:23.290Z,6.73
2019-05-02T19:01:26.702Z,6.37
2019-05-02T19:06:33.383Z,6.53
2019-05-02T19:11:35.786Z,6.60
2019-05-02T19:16:39.167Z,6.53
2019-05-02T19:21:42.630Z,6.73
2019-05-02T19:26:49.471Z,6.47
2019-05-02T19:31:52.541Z,6.20
2019-05-02T19:36:57.822Z,6.92
2019-05-02T19:42:01.873Z,6.40
2019-05-02T19:47:08.430Z,7.07
2019-05-02T19:52:10.524Z,6.67
2019-05-02T19:57:17.076Z,7.10
2019-05-02T20:02:22.181Z,8.10
2019-05-02T20:07:25.192Z,6.70
2019-05-02T20:12:28.687Z,6.43
2019-05-02T20:17:32.577Z,6.27
2019-05-02T20:22:40.642Z,6.07
2019-05-02T20:27:42.153Z,6.80
2019-05-02T20:32:45.755Z,6.80
2019-05-02T20:37:49.191Z,6.22
2019-05-02T20:42:52.825Z,6.37
2019-05-02T20:47:56.800Z,6.53
2019-05-02T20:53:01.956Z,7.27
2019-05-02T20:58:05.580Z,6.77
2019-05-02T21:03:08.955Z,7.97
2019-05-02T21:08:14.023Z,7.60
2019-05-02T21:13:17.476Z,10.27
2019-05-02T21:18:22.075Z,7.27
2019-05-02T21:23:26.530Z,8.23
2019-05-02T21:28:32.000Z,7.83
2019-05-02T21:33:37.819Z,6.97
2019-05-02T21:38:42.770Z,7.93
2019-05-02T21:43:46.288Z,7.37
2019-05-02T21:48:49.652Z,6.83
2019-05-02T21:54:02.870Z,8.60
2019-05-02T21:59:07.377Z,8.60
2019-05-02T22:04:12.901Z,7.67
2019-05-02T22:09:15.882Z,7.50
2019-05-02T22:14:19.291Z,7.47
2019-05-02T22:19:22.706Z,7.50
2019-05-02T22:24:26.046Z,7.50
2019-05-02T22:29:29.484Z,7.57
2019-05-02T22:34:32.870Z,8.07
2019-05-02T22:39:42.059Z,6.47
2019-05-02T22:44:45.485Z,7.10
2019-05-02T22:49:48.944Z,7.63
2019-05-02T22:54:52.503Z,6.97
2019-05-02T22:59:55.862Z,7.83
2019-05-02T23:04:59.303Z,6.73
2019-05-02T23:10:02.654Z,8.37
2019-05-02T23:15:07.142Z,7.73
2019-05-02T23:20:12.804Z,8.27
2019-05-02T23:25:33.884Z,8.77
2019-05-02T23:30:39.950Z,7.67
2019-05-02T23:35:43.294Z,9.03
2019-05-02T23:40:46.846Z,8.63
2019-05-02T23:45:51.648Z,8.63
2019-05-02T23:50:55.163Z,10.05
2019-05-02T23:55:58.510Z,9.30
